createdAt,value
2019-01-16T00:00:48.136Z,100619.14
2019-01-16T00:03:44.494Z,100619.25
2019-01-16T00:06:38.424Z,100618.42
2019-01-16T00:09:31.150Z,100625.59
2019-01-16T00:12:17.122Z,100621.62
2019-01-16T00:15:04.442Z,100620.09
2019-01-16T00:17:44.822Z,100613.69
2019-01-16T00:20:31.820Z,100612.94
2019-01-16T00:23:19.964Z,100612.76
2019-01-16T00:26:19.953Z,100612.97
2019-01-16T00:29:10.061Z,100611.81
2019-01-16T00:32:12.465Z,100610.56
2019-01-16T00:35:02.381Z,100603.65
2019-01-16T00:37:41.409Z,100602.58
2019-01-16T00:40:35.065Z,100607.92
2019-01-16T00:43:25.145Z,100607.20
2019-01-16T00:46:10.011Z,100596.50
2019-01-16T00:48:52.210Z,100609.00
2019-01-16T00:51:37.886Z,100600.84
2019-01-16T00:54:28.818Z,100607.83
2019-01-16T00:57:14.767Z,100604.48
2019-01-16T01:00:00.730Z,100599.22
2019-01-16T01:02:46.645Z,100597.50
2019-01-16T01:05:29.549Z,100602.16
2019-01-16T01:08:12.678Z,100598.98
2019-01-16T01:11:08.916Z,100596.42
2019-01-16T01:14:08.886Z,100593.58
2019-01-16T01:16:55.074Z,100595.77
2019-01-16T01:19:45.354Z,100592.41
2019-01-16T01:22:22.574Z,100591.28
2019-01-16T01:24:59.223Z,100591.05
2019-01-16T01:27:52.688Z,100581.55
2019-01-16T01:30:51.322Z,100579.81
2019-01-16T01:33:29.566Z,100582.55
2019-01-16T01:36:22.016Z,100580.09
2019-01-16T01:39:03.573Z,100578.19
2019-01-16T01:41:49.800Z,100580.45
2019-01-16T01:44:36.679Z,100578.19
2019-01-16T01:47:23.810Z,100571.91
2019-01-16T01:50:16.700Z,100581.11
2019-01-16T01:53:06.924Z,100580.38
2019-01-16T01:55:44.718Z,100581.42
2019-01-16T01:58:30.719Z,100572.00
2019-01-16T02:01:12.795Z,100573.19
2019-01-16T02:04:00.750Z,100568.83
2019-01-16T02:06:47.372Z,100570.96
2019-01-16T02:09:27.304Z,100562.52
2019-01-16T02:12:17.372Z,100562.62
2019-01-16T02:15:07.138Z,100563.03
2019-01-16T02:17:54.627Z,100556.23
2019-01-16T02:20:34.423Z,100559.46
2019-01-16T02:23:24.242Z,100548.52
2019-01-16T02:26:11.178Z,100550.88
2019-01-16T02:28:57.480Z,100547.82
2019-01-16T02:31:47.555Z,100552.13
2019-01-16T02:34:33.192Z,100546.50
2019-01-16T02:37:18.536Z,100553.13
2019-01-16T02:40:03.995Z,100544.45
2019-01-16T02:43:09.248Z,100546.32
2019-01-16T02:46:11.810Z,100543.27
2019-01-16T02:48:56.010Z,100541.25
2019-01-16T02:51:33.903Z,100534.34
2019-01-16T02:54:26.937Z,100530.93
2019-01-16T02:57:01.878Z,100527.00
2019-01-16T02:59:51.905Z,100520.82
2019-01-16T03:02:37.924Z,100520.72
2019-01-16T03:05:28.550Z,100522.48
2019-01-16T03:08:16.257Z,100517.90
2019-01-16T03:10:58.790Z,100516.65
2019-01-16T03:13:45.161Z,100507.30
2019-01-16T03:16:31.069Z,100508.02
2019-01-16T03:19:16.926Z,100503.75
2019-01-16T03:22:07.613Z,100503.52
2019-01-16T03:24:42.769Z,100501.53
2019-01-16T03:27:29.319Z,100495.48
2019-01-16T03:30:05.655Z,100489.65
2019-01-16T03:32:53.680Z,100489.95
2019-01-16T03:35:39.285Z,100488.91
2019-01-16T03:38:28.378Z,100488.19
2019-01-16T03:41:11.217Z,100479.35
2019-01-16T03:43:51.862Z,100480.81
2019-01-16T03:46:45.023Z,100474.05
2019-01-16T03:49:32.274Z,100483.55
2019-01-16T03:52:09.425Z,100469.98
2019-01-16T03:54:58.655Z,100466.33
2019-01-16T03:57:37.897Z,100459.56
2019-01-16T04:00:34.342Z,100461.75
2019-01-16T04:03:27.076Z,100464.88
2019-01-16T04:06:17.135Z,100454.14
2019-01-16T04:08:55.279Z,100446.19
2019-01-16T04:11:36.436Z,100449.89
2019-01-16T04:14:33.685Z,100445.22
2019-01-16T04:17:29.343Z,100453.76
2019-01-16T04:20:28.647Z,100445.94
2019-01-16T04:23:15.954Z,100453.66
2019-01-16T04:25:53.711Z,100445.23
2019-01-16T04:28:27.801Z,100448.14
2019-01-16T04:31:20.938Z,100441.47
2019-01-16T04:34:09.389Z,100442.52
2019-01-16T04:37:03.772Z,100433.86
2019-01-16T04:39:50.820Z,100435.84
2019-01-16T04:42:38.921Z,100439.48
2019-01-16T04:45:25.809Z,100426.87
2019-01-16T04:48:25.175Z,100417.59
2019-01-16T04:51:12.081Z,100417.99
2019-01-16T04:54:08.541Z,100406.02
2019-01-16T04:56:58.062Z,100404.56
2019-01-16T04:59:39.282Z,100400.49
2019-01-16T05:02:25.622Z,100409.87
2019-01-16T05:05:11.111Z,100413.64
2019-01-16T05:07:57.326Z,100406.34
2019-01-16T05:10:47.678Z,100402.70
2019-01-16T05:13:33.335Z,100404.36
2019-01-16T05:16:18.914Z,100392.77
2019-01-16T05:19:14.741Z,100405.27
2019-01-16T05:22:01.579Z,100401.20
2019-01-16T05:24:52.645Z,100396.92
2019-01-16T05:27:41.660Z,100395.17
2019-01-16T05:30:25.829Z,100400.38
2019-01-16T05:33:01.652Z,100399.03
2019-01-16T05:35:49.191Z,100398.93
2019-01-16T05:38:35.215Z,100396.84
2019-01-16T05:41:21.335Z,100394.55
2019-01-16T05:44:12.866Z,100393.37
2019-01-16T05:46:58.610Z,100392.34
2019-01-16T05:49:48.631Z,100395.79
2019-01-16T05:52:38.324Z,100393.08
2019-01-16T05:55:29.300Z,100393.52
2019-01-16T05:58:28.656Z,100386.20
2019-01-16T06:01:18.531Z,100385.98
2019-01-16T06:03:58.939Z,100381.70
2019-01-16T06:06:38.856Z,100376.80
2019-01-16T06:09:30.189Z,100377.11
2019-01-16T06:12:33.329Z,100364.59
2019-01-16T06:15:21.166Z,100367.61
2019-01-16T06:18:07.164Z,100363.36
2019-01-16T06:20:57.146Z,100359.08
2019-01-16T06:23:52.546Z,100363.14
2019-01-16T06:26:38.912Z,100355.72
2019-01-16T06:29:24.745Z,100364.72
2019-01-16T06:32:12.001Z,100363.14
2019-01-16T06:35:02.587Z,100361.36
2019-01-16T06:37:48.641Z,100367.42
2019-01-16T06:40:44.688Z,100362.84
2019-01-16T06:43:39.258Z,100367.30
2019-01-16T06:46:21.025Z,100367.21
2019-01-16T06:49:18.452Z,100362.41
2019-01-16T06:51:54.279Z,100361.58
2019-01-16T06:54:40.566Z,100352.81
2019-01-16T06:57:26.485Z,100346.56
2019-01-16T07:00:25.878Z,100343.51
2019-01-16T07:03:11.810Z,100339.66
2019-01-16T07:05:58.725Z,100346.03
2019-01-16T07:08:40.425Z,100351.03
2019-01-16T07:11:26.294Z,100344.69
2019-01-16T07:14:25.820Z,100336.33
2019-01-16T07:17:10.666Z,100339.88
2019-01-16T07:19:52.242Z,100344.47
2019-01-16T07:22:38.999Z,100351.16
2019-01-16T07:25:25.584Z,100347.39
2019-01-16T07:28:11.673Z,100347.61
2019-01-16T07:30:58.690Z,100349.80
2019-01-16T07:33:48.437Z,100355.53
2019-01-16T07:36:44.665Z,100351.64
2019-01-16T07:39:22.326Z,100342.59
2019-01-16T07:41:59.255Z,100338.30
2019-01-16T07:44:55.090Z,100337.16
2019-01-16T07:47:43.069Z,100336.85
2019-01-16T07:50:29.773Z,100341.02
2019-01-16T07:53:29.140Z,100338.30
2019-01-16T07:56:15.230Z,100333.70
2019-01-16T07:58:56.331Z,100338.95
2019-01-16T08:01:55.601Z,100341.97
2019-01-16T08:04:41.531Z,100338.83
2019-01-16T08:07:31.711Z,100332.88
2019-01-16T08:10:22.162Z,100341.53
2019-01-16T08:13:08.411Z,100347.48
2019-01-16T08:15:51.257Z,100348.63
2019-01-16T08:18:41.519Z,100343.02
2019-01-16T08:21:35.034Z,100351.98
2019-01-16T08:24:28.387Z,100352.91
2019-01-16T08:27:24.773Z,100353.95
2019-01-16T08:30:21.661Z,100347.26
2019-01-16T08:33:24.464Z,100347.27
2019-01-16T08:36:12.510Z,100343.62
2019-01-16T08:38:56.755Z,100338.81
2019-01-16T08:41:34.260Z,100346.86
2019-01-16T08:44:21.557Z,100348.91
2019-01-16T08:47:08.884Z,100347.03
2019-01-16T08:49:54.706Z,100345.27
2019-01-16T08:52:47.299Z,100346.54
2019-01-16T08:55:29.614Z,100344.53
2019-01-16T08:58:11.783Z,100342.95
2019-01-16T09:00:52.836Z,100340.58
2019-01-16T09:03:46.112Z,100341.20
2019-01-16T09:06:42.356Z,100335.47
2019-01-16T09:09:26.498Z,100332.96
2019-01-16T09:12:29.234Z,100323.88
2019-01-16T09:15:22.599Z,100322.41
2019-01-16T09:18:04.701Z,100321.67
2019-01-16T09:20:50.835Z,100325.45
2019-01-16T09:23:43.926Z,100316.02
2019-01-16T09:26:26.029Z,100314.98
2019-01-16T09:29:04.547Z,100315.08
2019-01-16T09:31:51.590Z,100313.93
2019-01-16T09:34:34.283Z,100316.98
2019-01-16T09:37:21.700Z,100310.27
2019-01-16T09:40:00.718Z,100300.15
2019-01-16T09:42:47.002Z,100302.12
2019-01-16T09:45:40.194Z,100291.26
2019-01-16T09:48:14.994Z,100286.72
2019-01-16T09:50:49.704Z,100291.45
2019-01-16T09:53:46.516Z,100292.28
2019-01-16T09:56:32.709Z,100281.64
2019-01-16T09:59:13.330Z,100284.16
2019-01-16T10:01:57.489Z,100290.66
2019-01-16T10:04:50.747Z,100290.73
2019-01-16T10:07:44.272Z,100291.52
2019-01-16T10:10:31.447Z,100281.75
2019-01-16T10:13:21.030Z,100266.02
2019-01-16T10:16:13.803Z,100271.14
2019-01-16T10:18:51.293Z,100281.67
2019-01-16T10:21:27.328Z,100277.48
2019-01-16T10:24:12.843Z,100276.33
2019-01-16T10:26:52.516Z,100275.38
2019-01-16T10:29:38.704Z,100260.71
2019-01-16T10:32:19.408Z,100263.23
2019-01-16T10:35:18.580Z,100255.02
2019-01-16T10:38:14.687Z,100239.95
2019-01-16T10:40:55.921Z,100231.73
2019-01-16T10:43:49.773Z,100226.03
2019-01-16T10:46:38.228Z,100221.58
2019-01-16T10:49:20.632Z,100212.42
2019-01-16T10:52:06.483Z,100216.75
2019-01-16T10:54:42.107Z,100209.72
2019-01-16T10:57:29.346Z,100206.63
2019-01-16T11:00:25.942Z,100187.42
2019-01-16T11:03:16.147Z,100187.60
2019-01-16T11:06:05.901Z,100187.02
2019-01-16T11:08:55.697Z,100192.08
2019-01-16T11:11:39.828Z,100195.70
2019-01-16T11:14:35.978Z,100187.17
2019-01-16T11:17:21.754Z,100188.26
2019-01-16T11:20:09.330Z,100187.78
2019-01-16T11:22:54.649Z,100192.89
2019-01-16T11:25:40.719Z,100185.91
2019-01-16T11:28:30.875Z,100177.41
2019-01-16T11:31:36.067Z,100170.08
2019-01-16T11:34:23.926Z,100163.39
2019-01-16T11:37:26.013Z,100154.37
2019-01-16T11:40:13.001Z,100155.72
2019-01-16T11:42:53.855Z,100141.44
2019-01-16T11:45:41.511Z,100132.58
2019-01-16T11:48:41.223Z,100120.69
2019-01-16T11:51:34.757Z,100104.69
2019-01-16T11:54:39.666Z,100103.88
2019-01-16T11:57:27.051Z,100105.76
2019-01-16T12:00:14.062Z,100109.84
2019-01-16T12:03:06.684Z,100098.20
2019-01-16T12:06:00.078Z,100095.66
2019-01-16T12:08:39.974Z,100091.81
2019-01-16T12:11:23.447Z,100089.64
2019-01-16T12:14:10.749Z,100080.19
2019-01-16T12:16:56.249Z,100075.94
2019-01-16T12:20:01.615Z,100075.88
2019-01-16T12:22:47.954Z,100071.22
2019-01-16T12:25:43.928Z,100060.08
2019-01-16T12:28:29.838Z,100051.76
2019-01-16T12:31:09.216Z,100042.47
2019-01-16T12:34:14.182Z,100038.32
2019-01-16T12:36:52.169Z,100035.00
2019-01-16T12:39:49.250Z,100031.62
2019-01-16T12:42:26.824Z,100023.81
2019-01-16T12:45:12.444Z,100017.54
2019-01-16T12:47:58.286Z,100012.63
2019-01-16T12:50:34.719Z,100015.65
2019-01-16T12:53:13.729Z,100015.36
2019-01-16T12:56:08.917Z,100007.07
2019-01-16T12:58:52.992Z,100005.22
2019-01-16T13:01:30.848Z,100003.73
2019-01-16T13:04:12.161Z,99995.11
2019-01-16T13:06:53.806Z,100002.68
2019-01-16T13:09:41.122Z,99995.80
2019-01-16T13:12:26.853Z,99986.42
2019-01-16T13:15:12.163Z,99980.70
2019-01-16T13:18:08.239Z,99975.18
2019-01-16T13:20:47.830Z,99974.70
2019-01-16T13:23:38.040Z,99972.38
2019-01-16T13:26:32.914Z,99969.50
2019-01-16T13:29:37.597Z,99970.25
2019-01-16T13:32:23.204Z,99972.94
2019-01-16T13:35:23.191Z,99955.98
2019-01-16T13:38:12.935Z,99962.73
2019-01-16T13:41:06.576Z,99951.80
2019-01-16T13:43:48.201Z,99958.21
2019-01-16T13:46:53.870Z,99956.81
2019-01-16T13:49:47.186Z,99953.95
2019-01-16T13:52:42.826Z,99953.47
2019-01-16T13:55:28.733Z,99948.31
2019-01-16T13:58:16.011Z,99934.02
2019-01-16T14:00:57.392Z,99942.97
2019-01-16T14:03:56.482Z,99933.28
2019-01-16T14:06:35.437Z,99930.77
2019-01-16T14:09:34.448Z,99921.30
2019-01-16T14:12:20.826Z,99917.35
2019-01-16T14:15:06.838Z,99912.36
2019-01-16T14:17:59.983Z,99906.13
2019-01-16T14:21:01.585Z,99899.25
2019-01-16T14:23:48.337Z,99896.18
2019-01-16T14:26:31.946Z,99890.44
2019-01-16T14:29:34.247Z,99885.77
2019-01-16T14:32:20.091Z,99882.58
2019-01-16T14:35:01.807Z,99877.33
2019-01-16T14:37:58.139Z,99872.47
2019-01-16T14:40:45.274Z,99877.67
2019-01-16T14:43:44.260Z,99873.09
2019-01-16T14:46:25.908Z,99874.19
2019-01-16T14:49:13.354Z,99880.66
2019-01-16T14:51:50.720Z,99867.09
2019-01-16T14:54:37.103Z,99863.16
2019-01-16T14:57:23.155Z,99853.15
2019-01-16T15:00:09.157Z,99848.98
2019-01-16T15:03:08.176Z,99843.09
2019-01-16T15:05:49.121Z,99842.23
2019-01-16T15:08:46.032Z,99835.94
2019-01-16T15:11:35.834Z,99825.23
2019-01-16T15:14:22.959Z,99819.22
2019-01-16T15:17:08.952Z,99813.19
2019-01-16T15:19:59.315Z,99807.99
2019-01-16T15:22:51.373Z,99800.75
2019-01-16T15:25:41.532Z,99799.00
2019-01-16T15:28:34.711Z,99799.91
2019-01-16T15:31:20.255Z,99793.66
2019-01-16T15:34:06.150Z,99785.50
2019-01-16T15:36:55.733Z,99788.34
2019-01-16T15:39:44.056Z,99786.53
2019-01-16T15:42:30.267Z,99783.20
2019-01-16T15:45:29.894Z,99783.02
2019-01-16T15:48:17.095Z,99785.14
2019-01-16T15:51:04.156Z,99782.95
2019-01-16T15:53:45.799Z,99781.48
2019-01-16T15:56:39.840Z,99777.45
2019-01-16T15:59:30.030Z,99776.05
2019-01-16T16:02:19.450Z,99776.00
2019-01-16T16:05:08.564Z,99776.75
2019-01-16T16:08:02.106Z,99760.91
2019-01-16T16:10:49.161Z,99754.52
2019-01-16T16:13:42.404Z,99763.61
2019-01-16T16:16:18.199Z,99761.20
2019-01-16T16:18:54.959Z,99755.34
2019-01-16T16:21:38.585Z,99757.05
2019-01-16T16:24:32.077Z,99754.19
2019-01-16T16:27:28.113Z,99743.84
2019-01-16T16:30:05.976Z,99718.87
2019-01-16T16:32:49.393Z,99732.91
2019-01-16T16:35:30.774Z,99735.89
2019-01-16T16:38:18.139Z,99740.86
2019-01-16T16:41:00.248Z,99741.13
2019-01-16T16:43:49.925Z,99729.50
2019-01-16T16:46:49.009Z,99734.84
2019-01-16T16:49:25.011Z,99731.42
2019-01-16T16:52:30.371Z,99728.19
2019-01-16T16:55:09.078Z,99725.00
2019-01-16T16:58:05.366Z,99716.58
2019-01-16T17:01:01.439Z,99712.73
2019-01-16T17:03:40.208Z,99709.91
2019-01-16T17:06:19.254Z,99704.09
2019-01-16T17:09:24.593Z,99702.59
2019-01-16T17:12:11.897Z,99703.94
2019-01-16T17:14:59.287Z,99703.70
2019-01-16T17:17:44.570Z,99697.09
2019-01-16T17:20:37.921Z,99696.52
2019-01-16T17:23:43.085Z,99692.02
2019-01-16T17:26:36.733Z,99689.80
2019-01-16T17:29:22.579Z,99693.50
2019-01-16T17:32:22.042Z,99689.75
2019-01-16T17:35:10.588Z,99692.72
2019-01-16T17:37:56.792Z,99688.22
2019-01-16T17:40:53.136Z,99685.33
2019-01-16T17:43:47.289Z,99686.68
2019-01-16T17:46:34.179Z,99688.16
2019-01-16T17:49:36.407Z,99684.09
2019-01-16T17:52:26.231Z,99680.05
2019-01-16T17:55:13.667Z,99678.18
2019-01-16T17:58:09.165Z,99669.68
2019-01-16T18:00:55.070Z,99674.08
2019-01-16T18:03:36.309Z,99672.01
2019-01-16T18:06:16.363Z,99662.80
2019-01-16T18:09:06.619Z,99660.33
2019-01-16T18:11:46.810Z,99661.65
2019-01-16T18:14:36.087Z,99661.12
2019-01-16T18:17:26.167Z,99651.33
2019-01-16T18:20:13.475Z,99637.81
2019-01-16T18:23:00.810Z,99634.47
2019-01-16T18:25:50.943Z,99635.63
2019-01-16T18:28:36.555Z,99634.14
2019-01-16T18:31:20.900Z,99632.92
2019-01-16T18:34:06.567Z,99629.67
2019-01-16T18:37:04.754Z,99624.03
2019-01-16T18:39:48.566Z,99623.59
2019-01-16T18:42:50.736Z,99613.47
2019-01-16T18:45:32.917Z,99603.59
2019-01-16T18:48:18.594Z,99601.00
2019-01-16T18:51:08.628Z,99606.56
2019-01-16T18:53:54.634Z,99604.91
2019-01-16T18:56:47.559Z,99606.19
2019-01-16T18:59:36.909Z,99601.83
2019-01-16T19:02:23.659Z,99611.48
2019-01-16T19:05:12.760Z,99609.11
2019-01-16T19:08:02.507Z,99606.80
2019-01-16T19:10:39.495Z,99597.44
2019-01-16T19:13:29.124Z,99592.75
2019-01-16T19:16:25.323Z,99598.67
2019-01-16T19:19:07.967Z,99590.83
2019-01-16T19:22:04.386Z,99599.47
2019-01-16T19:24:46.204Z,99608.64
2019-01-16T19:27:42.484Z,99602.81
2019-01-16T19:30:38.017Z,99595.94
2019-01-16T19:33:19.027Z,99584.30
2019-01-16T19:36:05.085Z,99589.92
2019-01-16T19:38:51.846Z,99583.99
2019-01-16T19:41:38.314Z,99578.89
2019-01-16T19:44:28.303Z,99581.25
2019-01-16T19:47:11.587Z,99576.06
2019-01-16T19:50:05.005Z,99579.38
2019-01-16T19:52:56.723Z,99569.50
2019-01-16T19:55:51.221Z,99563.59
2019-01-16T19:58:56.569Z,99561.91
2019-01-16T20:02:01.878Z,99569.60
2019-01-16T20:05:01.146Z,99569.68
2019-01-16T20:07:56.845Z,99570.50
2019-01-16T20:10:53.586Z,99557.73
2019-01-16T20:13:39.811Z,99550.27
2019-01-16T20:16:16.048Z,99548.02
2019-01-16T20:19:09.000Z,99543.55
2019-01-16T20:21:51.922Z,99539.06
2019-01-16T20:24:30.120Z,99543.77
2019-01-16T20:27:29.693Z,99546.25
2019-01-16T20:30:17.750Z,99537.09
2019-01-16T20:32:59.096Z,99537.49
2019-01-16T20:35:48.901Z,99541.55
2019-01-16T20:38:51.406Z,99537.57
2019-01-16T20:41:45.347Z,99535.09
2019-01-16T20:44:32.797Z,99536.55
2019-01-16T20:47:28.676Z,99534.45
2019-01-16T20:50:06.468Z,99536.17
2019-01-16T20:53:02.916Z,99531.39
2019-01-16T20:55:48.756Z,99539.36
2019-01-16T20:58:34.289Z,99528.84
2019-01-16T21:01:09.990Z,99524.48
2019-01-16T21:03:59.806Z,99530.52
2019-01-16T21:06:44.236Z,99517.14
2019-01-16T21:09:20.495Z,99523.00
2019-01-16T21:12:13.447Z,99525.06
2019-01-16T21:15:00.680Z,99517.61
2019-01-16T21:17:50.611Z,99520.63
2019-01-16T21:20:43.436Z,99511.91
2019-01-16T21:23:39.568Z,99511.61
2019-01-16T21:26:32.831Z,99512.91
2019-01-16T21:29:19.682Z,99513.66
2019-01-16T21:31:57.730Z,99521.67
2019-01-16T21:34:42.940Z,99519.67
2019-01-16T21:37:30.621Z,99511.39
2019-01-16T21:40:20.370Z,99513.20
2019-01-16T21:43:16.084Z,99498.09
2019-01-16T21:46:01.804Z,99504.20
2019-01-16T21:48:47.896Z,99492.39
2019-01-16T21:51:37.983Z,99490.08
2019-01-16T21:54:25.572Z,99493.02
2019-01-16T21:57:24.502Z,99499.86
2019-01-16T22:00:17.226Z,99486.49
2019-01-16T22:03:09.812Z,99495.73
2019-01-16T22:06:03.062Z,99492.50
2019-01-16T22:08:50.699Z,99486.73
2019-01-16T22:11:33.002Z,99492.08
2019-01-16T22:14:18.904Z,99490.82
2019-01-16T22:17:04.842Z,99490.66
2019-01-16T22:19:50.804Z,99483.28
2019-01-16T22:22:28.058Z,99479.67
2019-01-16T22:25:14.110Z,99475.70
2019-01-16T22:27:56.415Z,99457.34
2019-01-16T22:30:56.746Z,99472.02
2019-01-16T22:33:56.150Z,99468.37
2019-01-16T22:36:31.275Z,99467.70
2019-01-16T22:39:18.267Z,99465.05
2019-01-16T22:42:04.400Z,99463.11
2019-01-16T22:44:42.050Z,99478.61
2019-01-16T22:47:18.902Z,99459.93
2019-01-16T22:50:07.274Z,99473.01
2019-01-16T22:52:54.222Z,99472.25
2019-01-16T22:55:56.778Z,99467.35
2019-01-16T22:58:37.830Z,99469.16
2019-01-16T23:01:26.000Z,99469.06
2019-01-16T23:04:12.511Z,99465.88
2019-01-16T23:06:46.166Z,99462.77
2019-01-16T23:09:32.372Z,99451.78
2019-01-16T23:12:31.904Z,99461.36
2019-01-16T23:15:19.522Z,99472.27
2019-01-16T23:18:15.494Z,99460.36
2019-01-16T23:21:02.908Z,99455.89
2019-01-16T23:23:49.801Z,99443.48
2019-01-16T23:26:35.699Z,99441.02
2019-01-16T23:29:35.360Z,99443.04
2019-01-16T23:32:38.277Z,99433.59
2019-01-16T23:35:30.858Z,99436.91
2019-01-16T23:38:16.661Z,99430.30
2019-01-16T23:41:01.179Z,99432.16
2019-01-16T23:43:54.465Z,99440.38
2019-01-16T23:46:43.134Z,99437.66
2019-01-16T23:49:48.860Z,99446.68
2019-01-16T23:52:35.862Z,99436.44
2019-01-16T23:55:24.298Z,99436.44
2019-01-16T23:58:11.151Z,99433.37
